createdAt,value
2018-10-21T00:02:22.889Z,27.87
2018-10-21T00:04:50.983Z,31.17
2018-10-21T00:07:19.261Z,25.57
2018-10-21T00:09:47.417Z,33.23
2018-10-21T00:12:15.570Z,34.13
2018-10-21T00:14:43.727Z,29.57
2018-10-21T00:17:11.893Z,31.13
2018-10-21T00:19:40.073Z,30.13
2018-10-21T00:22:08.253Z,30.67
2018-10-21T00:24:36.426Z,32.30
2018-10-21T00:27:05.541Z,29.93
2018-10-21T00:29:33.641Z,26.77
2018-10-21T00:32:01.825Z,26.97
2018-10-21T00:34:29.978Z,24.47
2018-10-21T00:36:58.118Z,27.77
2018-10-21T00:39:26.276Z,28.83
2018-10-21T00:41:54.433Z,26.40
2018-10-21T00:44:22.564Z,31.10
2018-10-21T00:46:50.713Z,29.50
2018-10-21T00:49:18.872Z,24.40
2018-10-21T00:51:47.036Z,26.50
2018-10-21T00:54:16.153Z,24.43
2018-10-21T00:56:45.837Z,24.13
2018-10-21T00:59:13.983Z,26.00
2018-10-21T01:01:42.209Z,20.27
2018-10-21T01:04:10.483Z,27.27
2018-10-21T01:06:38.585Z,27.70
2018-10-21T01:09:10.308Z,27.87
2018-10-21T01:11:39.250Z,28.77
2018-10-21T01:14:07.533Z,27.13
2018-10-21T01:16:35.714Z,25.93
2018-10-21T01:19:04.061Z,30.50
2018-10-21T01:21:32.216Z,30.93
2018-10-21T01:24:00.395Z,26.93
2018-10-21T01:26:28.621Z,27.00
2018-10-21T01:28:57.453Z,28.53
2018-10-21T01:31:25.592Z,27.90
2018-10-21T01:33:53.758Z,21.60
2018-10-21T01:36:22.221Z,28.23
2018-10-21T01:38:50.066Z,26.97
2018-10-21T01:41:18.217Z,28.90
2018-10-21T01:43:46.370Z,24.97
2018-10-21T01:46:14.545Z,30.73
2018-10-21T01:48:42.681Z,31.80
2018-10-21T01:51:10.895Z,24.93
2018-10-21T01:53:38.989Z,28.37
2018-10-21T01:56:07.153Z,29.87
2018-10-21T01:58:35.285Z,26.53
2018-10-21T02:01:03.460Z,26.63
2018-10-21T02:03:31.605Z,28.20
2018-10-21T02:05:59.765Z,29.10
2018-10-21T02:08:27.917Z,30.83
2018-10-21T02:10:56.062Z,28.03
2018-10-21T02:13:24.217Z,25.63
2018-10-21T02:15:52.378Z,25.03
2018-10-21T02:18:20.531Z,28.10
2018-10-21T02:20:48.677Z,26.80
2018-10-21T02:23:17.080Z,31.60
2018-10-21T02:25:45.230Z,26.83
2018-10-21T02:28:13.401Z,30.60
2018-10-21T02:30:41.541Z,28.23
2018-10-21T02:33:09.740Z,28.17
2018-10-21T02:35:37.841Z,28.70
2018-10-21T02:38:05.969Z,33.87
2018-10-21T02:41:43.860Z,37.10
2018-10-21T02:44:16.133Z,29.10
2018-10-21T02:46:45.014Z,26.73
2018-10-21T02:49:14.012Z,29.97
2018-10-21T02:51:42.164Z,27.47
2018-10-21T02:54:10.763Z,50.33
2018-10-21T02:56:38.907Z,57.40
2018-10-21T02:59:07.201Z,63.13
2018-10-21T03:01:35.392Z,53.00
2018-10-21T03:04:03.549Z,50.47
2018-10-21T03:06:31.676Z,46.80
2018-10-21T03:08:59.928Z,42.50
2018-10-21T03:11:27.996Z,42.07
2018-10-21T03:13:56.141Z,56.43
2018-10-21T03:16:24.277Z,53.60
2018-10-21T03:18:52.413Z,54.37
2018-10-21T03:21:20.699Z,57.63
2018-10-21T03:23:48.710Z,52.67
2018-10-21T03:26:16.857Z,47.30
2018-10-21T03:28:44.998Z,48.00
2018-10-21T03:31:13.139Z,35.57
2018-10-21T03:33:41.402Z,37.00
2018-10-21T03:36:09.441Z,31.63
2018-10-21T03:38:37.593Z,35.33
2018-10-21T03:41:05.803Z,33.53
2018-10-21T03:43:33.949Z,42.37
2018-10-21T03:46:02.120Z,37.67
2018-10-21T03:48:30.269Z,37.27
2018-10-21T03:50:58.409Z,37.53
2018-10-21T03:53:26.569Z,34.73
2018-10-21T03:55:54.705Z,30.13
2018-10-21T03:58:22.869Z,28.67
2018-10-21T04:00:51.019Z,32.37
2018-10-21T04:03:19.169Z,32.87
2018-10-21T04:05:47.316Z,32.13
2018-10-21T04:08:15.465Z,29.37
2018-10-21T04:10:43.654Z,30.40
2018-10-21T04:13:11.809Z,30.80
2018-10-21T04:15:39.941Z,33.67
2018-10-21T04:18:08.389Z,31.33
2018-10-21T04:20:36.537Z,34.17
2018-10-21T04:23:05.101Z,34.67
2018-10-21T04:25:35.192Z,36.50
2018-10-21T04:28:04.478Z,33.30
2018-10-21T04:30:33.718Z,31.73
2018-10-21T04:34:08.702Z,35.50
2018-10-21T04:36:36.869Z,32.50
2018-10-21T04:39:43.433Z,30.23
2018-10-21T04:42:12.330Z,35.00
2018-10-21T04:44:40.477Z,33.20
2018-10-21T04:47:11.195Z,41.20
2018-10-21T04:49:39.651Z,34.50
2018-10-21T04:52:07.886Z,34.30
2018-10-21T04:54:36.613Z,38.37
2018-10-21T04:57:07.017Z,35.13
2018-10-21T04:59:35.956Z,35.27
2018-10-21T05:02:04.143Z,32.50
2018-10-21T05:04:32.319Z,39.57
2018-10-21T05:07:01.353Z,35.00
2018-10-21T05:09:29.521Z,37.57
2018-10-21T05:11:57.794Z,36.77
2018-10-21T05:14:26.058Z,36.80
2018-10-21T05:16:54.205Z,41.70
2018-10-21T05:19:22.358Z,39.53
2018-10-21T05:21:50.741Z,35.40
2018-10-21T05:24:18.886Z,37.47
2018-10-21T05:26:47.024Z,37.47
2018-10-21T05:29:15.166Z,35.60
2018-10-21T05:31:43.372Z,42.20
2018-10-21T05:34:11.648Z,38.33
2018-10-21T05:36:39.737Z,39.63
2018-10-21T05:39:09.485Z,41.57
2018-10-21T05:41:37.701Z,35.30
2018-10-21T05:44:05.890Z,39.70
2018-10-21T05:46:43.476Z,34.63
2018-10-21T05:49:11.653Z,39.70
2018-10-21T05:51:41.104Z,39.43
2018-10-21T05:54:10.326Z,43.67
2018-10-21T05:56:39.235Z,40.50
2018-10-21T05:59:07.773Z,35.40
2018-10-21T06:01:35.989Z,37.40
2018-10-21T06:04:04.193Z,41.80
2018-10-21T06:06:32.321Z,37.87
2018-10-21T06:09:00.494Z,35.83
2018-10-21T06:11:28.685Z,42.30
2018-10-21T06:13:56.859Z,41.53
2018-10-21T06:16:25.037Z,47.13
2018-10-21T06:18:53.291Z,42.97
2018-10-21T06:21:21.451Z,39.10
2018-10-21T06:23:49.615Z,41.87
2018-10-21T06:26:17.756Z,39.03
2018-10-21T06:28:45.999Z,46.73
2018-10-21T06:31:14.220Z,45.97
2018-10-21T06:33:42.401Z,49.73
2018-10-21T06:36:10.494Z,47.77
2018-10-21T06:38:38.641Z,55.37
2018-10-21T06:41:06.803Z,49.30
2018-10-21T06:43:34.957Z,48.57
2018-10-21T06:46:03.216Z,44.97
2018-10-21T06:48:31.409Z,45.50
2018-10-21T06:50:59.584Z,42.73
2018-10-21T06:53:27.705Z,45.13
2018-10-21T06:55:55.862Z,44.87
2018-10-21T06:58:24.016Z,44.53
2018-10-21T07:00:52.247Z,46.33
2018-10-21T07:03:20.399Z,47.70
2018-10-21T07:06:21.429Z,42.50
2018-10-21T07:08:50.636Z,45.17
2018-10-21T07:11:18.788Z,52.43
2018-10-21T07:13:47.645Z,45.07
2018-10-21T07:16:16.250Z,42.03
2018-10-21T07:18:45.405Z,48.27
2018-10-21T07:21:13.788Z,40.47
2018-10-21T07:23:42.036Z,47.17
2018-10-21T07:26:10.342Z,43.90
2018-10-21T07:28:38.775Z,44.53
2018-10-21T07:31:06.959Z,44.27
2018-10-21T07:33:35.202Z,41.83
2018-10-21T07:36:03.431Z,42.10
2018-10-21T07:38:31.650Z,47.17
2018-10-21T07:40:59.857Z,42.97
2018-10-21T07:43:28.119Z,45.67
2018-10-21T07:45:56.415Z,42.97
2018-10-21T07:48:24.525Z,47.20
2018-10-21T07:50:52.749Z,42.13
2018-10-21T07:53:20.959Z,43.90
2018-10-21T07:55:49.353Z,45.17
2018-10-21T07:58:17.554Z,45.30
2018-10-21T08:00:45.784Z,43.90
2018-10-21T08:03:14.123Z,44.67
2018-10-21T08:05:53.694Z,45.33
2018-10-21T08:08:22.978Z,44.27
2018-10-21T08:10:51.253Z,41.63
2018-10-21T08:13:20.769Z,53.23
2018-10-21T08:15:49.038Z,46.00
2018-10-21T08:18:17.250Z,43.83
2018-10-21T08:20:47.643Z,42.63
2018-10-21T08:23:16.927Z,46.80
2018-10-21T08:25:46.546Z,47.63
2018-10-21T08:28:14.733Z,40.67
2018-10-21T08:30:43.064Z,37.43
2018-10-21T08:33:11.302Z,43.27
2018-10-21T08:35:39.567Z,42.00
2018-10-21T08:38:07.754Z,39.00
2018-10-21T08:40:35.997Z,38.77
2018-10-21T08:43:04.281Z,34.37
2018-10-21T08:45:32.522Z,35.73
2018-10-21T08:48:00.785Z,38.07
2018-10-21T08:50:28.995Z,34.17
2018-10-21T08:52:57.269Z,37.77
2018-10-21T08:55:25.459Z,33.13
2018-10-21T08:57:53.710Z,33.57
2018-10-21T09:00:21.879Z,33.63
2018-10-21T09:02:50.068Z,30.07
2018-10-21T09:05:19.176Z,35.77
2018-10-21T09:07:47.544Z,29.87
2018-10-21T09:10:16.721Z,33.37
2018-10-21T09:12:44.869Z,28.20
2018-10-21T09:15:14.987Z,28.20
2018-10-21T09:17:43.141Z,29.47
2018-10-21T09:20:13.522Z,22.77
2018-10-21T09:22:41.815Z,24.33
2018-10-21T09:25:11.003Z,20.97
2018-10-21T09:27:39.822Z,21.00
2018-10-21T09:30:09.450Z,22.20
2018-10-21T09:32:37.764Z,18.07
2018-10-21T09:35:07.221Z,21.80
2018-10-21T09:37:35.640Z,20.43
2018-10-21T09:40:04.141Z,21.73
2018-10-21T09:42:32.293Z,22.40
2018-10-21T09:45:00.473Z,18.07
2018-10-21T09:47:28.789Z,26.67
2018-10-21T09:49:57.005Z,21.57
2018-10-21T09:52:25.177Z,21.60
2018-10-21T09:54:53.385Z,17.00
2018-10-21T09:57:21.649Z,16.57
2018-10-21T09:59:49.906Z,17.53
2018-10-21T10:02:23.402Z,15.60
2018-10-21T10:04:51.692Z,17.67
2018-10-21T10:07:20.071Z,17.87
2018-10-21T10:09:48.317Z,16.30
2018-10-21T10:12:16.510Z,12.43
2018-10-21T10:14:44.690Z,16.93
2018-10-21T10:17:12.953Z,15.73
2018-10-21T10:19:41.253Z,16.80
2018-10-21T10:22:09.633Z,15.10
2018-10-21T10:24:37.761Z,18.80
2018-10-21T10:27:06.130Z,13.80
2018-10-21T10:29:34.525Z,15.23
2018-10-21T10:32:02.706Z,17.67
2018-10-21T10:34:30.919Z,17.50
2018-10-21T10:36:59.166Z,16.83
2018-10-21T10:39:27.285Z,14.07
2018-10-21T10:41:55.676Z,14.50
2018-10-21T10:44:23.766Z,15.47
2018-10-21T10:46:51.944Z,16.93
2018-10-21T10:49:20.192Z,15.37
2018-10-21T10:51:48.356Z,15.27
2018-10-21T10:54:16.548Z,14.00
2018-10-21T10:56:44.837Z,16.23
2018-10-21T10:59:13.107Z,14.63
2018-10-21T11:01:41.345Z,12.80
2018-10-21T11:04:09.809Z,11.37
2018-10-21T11:06:37.905Z,11.10
2018-10-21T11:09:08.042Z,10.53
2018-10-21T11:11:36.950Z,11.37
2018-10-21T11:14:05.397Z,13.43
2018-10-21T11:16:33.717Z,10.50
2018-10-21T11:19:02.605Z,11.10
2018-10-21T11:21:30.766Z,9.20
2018-10-21T11:23:58.938Z,8.73
2018-10-21T11:26:27.130Z,8.07
2018-10-21T11:28:56.454Z,10.60
2018-10-21T11:31:24.731Z,9.13
2018-10-21T11:33:52.947Z,8.77
2018-10-21T11:36:21.228Z,7.67
2018-10-21T11:38:49.490Z,6.10
2018-10-21T11:41:17.738Z,6.97
2018-10-21T11:43:45.948Z,10.50
2018-10-21T11:46:14.705Z,9.80
2018-10-21T11:48:42.884Z,6.90
2018-10-21T11:51:11.777Z,6.40
2018-10-21T11:53:41.691Z,11.00
2018-10-21T11:56:10.361Z,7.13
2018-10-21T11:58:38.529Z,4.47
2018-10-21T12:01:07.562Z,5.33
2018-10-21T12:03:35.760Z,4.97
2018-10-21T12:06:03.948Z,6.47
2018-10-21T12:08:32.122Z,4.80
2018-10-21T12:11:00.280Z,4.50
2018-10-21T12:13:28.437Z,3.80
2018-10-21T12:15:56.617Z,4.93
2018-10-21T12:18:25.484Z,5.40
2018-10-21T12:20:53.667Z,4.40
2018-10-21T12:23:21.833Z,9.43
2018-10-21T12:25:50.076Z,4.07
2018-10-21T12:28:18.577Z,4.57
2018-10-21T12:30:46.701Z,4.17
2018-10-21T12:33:14.898Z,3.17
2018-10-21T12:35:45.823Z,3.50
2018-10-21T12:38:13.983Z,3.50
2018-10-21T12:40:42.149Z,3.93
2018-10-21T12:43:10.787Z,2.97
2018-10-21T12:45:38.901Z,4.23
2018-10-21T12:48:07.068Z,4.80
2018-10-21T12:50:35.233Z,3.97
2018-10-21T12:53:03.426Z,3.97
2018-10-21T12:55:31.581Z,3.13
2018-10-21T12:57:59.841Z,3.30
2018-10-21T13:00:27.962Z,3.73
2018-10-21T13:02:56.133Z,4.50
2018-10-21T13:05:24.311Z,2.50
2018-10-21T13:07:52.449Z,2.80
2018-10-21T13:10:20.609Z,5.40
2018-10-21T13:12:48.819Z,5.07
2018-10-21T13:15:16.962Z,4.27
2018-10-21T13:17:45.120Z,2.50
2018-10-21T13:20:13.295Z,4.07
2018-10-21T13:22:41.469Z,3.27
2018-10-21T13:25:09.736Z,5.37
2018-10-21T13:27:37.846Z,3.83
2018-10-21T13:30:06.822Z,4.87
2018-10-21T13:32:35.022Z,2.63
2018-10-21T13:35:03.206Z,2.53
2018-10-21T13:37:31.378Z,3.27
2018-10-21T13:39:59.583Z,2.40
2018-10-21T13:42:27.727Z,5.60
2018-10-21T13:44:55.895Z,2.40
2018-10-21T13:47:24.057Z,4.37
2018-10-21T13:49:52.262Z,3.10
2018-10-21T13:52:20.492Z,4.33
2018-10-21T13:54:48.602Z,3.50
2018-10-21T13:57:16.775Z,5.00
2018-10-21T13:59:44.938Z,2.90
2018-10-21T14:02:13.095Z,3.30
2018-10-21T14:04:41.276Z,4.13
2018-10-21T14:07:09.481Z,2.80
2018-10-21T14:09:37.588Z,17.10
2018-10-21T14:12:05.769Z,5.40
2018-10-21T14:14:33.917Z,4.23
2018-10-21T14:17:02.086Z,2.43
2018-10-21T14:19:30.238Z,3.30
2018-10-21T14:21:58.462Z,2.80
2018-10-21T14:24:26.590Z,3.83
2018-10-21T14:26:54.742Z,4.67
2018-10-21T14:29:22.906Z,10.00
2018-10-21T14:31:51.100Z,3.60
2018-10-21T14:34:19.244Z,9.70
2018-10-21T14:36:47.407Z,5.30
2018-10-21T14:39:15.709Z,3.73
2018-10-21T14:41:43.841Z,4.53
2018-10-21T14:44:12.033Z,3.20
2018-10-21T14:46:40.189Z,3.43
2018-10-21T14:49:09.309Z,3.63
2018-10-21T14:51:37.478Z,2.80
2018-10-21T14:54:05.685Z,2.03
2018-10-21T14:56:33.841Z,2.93
2018-10-21T14:59:02.014Z,3.50
2018-10-21T15:01:30.185Z,1.90
2018-10-21T15:03:58.371Z,2.40
2018-10-21T15:06:26.502Z,2.57
2018-10-21T15:08:54.690Z,2.50
2018-10-21T15:11:23.423Z,3.87
2018-10-21T15:13:51.710Z,2.87
2018-10-21T15:16:20.153Z,6.00
2018-10-21T15:18:48.309Z,3.73
2018-10-21T15:21:17.715Z,4.17
2018-10-21T15:23:45.907Z,2.33
2018-10-21T15:26:14.193Z,3.93
2018-10-21T15:28:42.284Z,3.20
2018-10-21T15:31:10.504Z,2.87
2018-10-21T15:33:38.675Z,2.70
2018-10-21T15:36:06.845Z,4.50
2018-10-21T15:38:35.005Z,2.30
2018-10-21T15:41:03.170Z,2.40
2018-10-21T15:43:31.336Z,2.73
2018-10-21T15:45:59.529Z,3.00
2018-10-21T15:48:27.701Z,2.00
2018-10-21T15:50:56.134Z,1.63
2018-10-21T15:53:24.294Z,3.43
2018-10-21T15:55:52.468Z,2.40
2018-10-21T15:58:20.679Z,6.17
2018-10-21T16:00:48.872Z,3.57
2018-10-21T16:03:17.037Z,7.37
2018-10-21T16:05:45.213Z,3.30
2018-10-21T16:08:13.423Z,2.80
2018-10-21T16:10:41.681Z,4.73
2018-10-21T16:13:10.476Z,3.57
2018-10-21T16:15:39.114Z,6.60
2018-10-21T16:18:07.546Z,3.80
2018-10-21T16:20:35.711Z,4.27
2018-10-21T16:23:03.994Z,4.77
2018-10-21T16:25:32.280Z,7.10
2018-10-21T16:28:00.440Z,13.10
2018-10-21T16:30:28.542Z,7.40
2018-10-21T16:32:56.905Z,4.53
2018-10-21T16:35:25.029Z,8.23
2018-10-21T16:37:53.272Z,7.37
2018-10-21T16:40:21.443Z,11.73
2018-10-21T16:42:49.613Z,11.60
2018-10-21T16:45:18.401Z,8.27
2018-10-21T16:47:46.512Z,4.60
2018-10-21T16:50:15.936Z,5.57
2018-10-21T16:52:44.829Z,5.93
2018-10-21T16:55:13.502Z,12.50
2018-10-21T16:57:41.833Z,15.93
2018-10-21T17:00:13.171Z,8.97
2018-10-21T17:02:41.526Z,8.70
2018-10-21T17:05:10.048Z,7.80
2018-10-21T17:07:38.293Z,11.63
2018-10-21T17:10:07.387Z,8.40
2018-10-21T17:12:35.543Z,7.90
2018-10-21T17:15:03.929Z,8.47
2018-10-21T17:17:32.090Z,7.53
2018-10-21T17:20:00.404Z,7.80
2018-10-21T17:22:28.589Z,10.97
2018-10-21T17:24:56.806Z,8.43
2018-10-21T17:27:25.013Z,10.93
2018-10-21T17:29:53.183Z,16.67
2018-10-21T17:32:21.328Z,19.10
2018-10-21T17:34:49.511Z,18.30
2018-10-21T17:37:17.843Z,11.50
2018-10-21T17:39:45.850Z,11.93
2018-10-21T17:42:14.037Z,8.93
2018-10-21T17:44:42.221Z,14.07
2018-10-21T17:47:10.581Z,8.57
2018-10-21T17:49:38.753Z,10.20
2018-10-21T17:52:07.006Z,8.70
2018-10-21T17:54:35.182Z,10.90
2018-10-21T17:57:03.351Z,9.53
2018-10-21T17:59:31.484Z,8.10
2018-10-21T18:01:59.656Z,6.87
2018-10-21T18:04:28.174Z,14.57
2018-10-21T18:06:56.359Z,8.67
2018-10-21T18:09:24.483Z,6.97
2018-10-21T18:11:52.637Z,9.70
2018-10-21T18:14:20.813Z,8.50
2018-10-21T18:16:48.965Z,7.73
2018-10-21T18:19:17.152Z,12.90
2018-10-21T18:21:45.306Z,7.00
2018-10-21T18:24:13.465Z,6.40
2018-10-21T18:26:42.513Z,15.10
2018-10-21T18:29:10.654Z,5.70
2018-10-21T18:31:38.817Z,9.37
2018-10-21T18:34:07.087Z,7.80
2018-10-21T18:36:35.150Z,9.27
2018-10-21T18:39:03.449Z,10.10
2018-10-21T18:41:31.597Z,12.57
2018-10-21T18:43:59.765Z,11.07
2018-10-21T18:46:27.968Z,10.83
2018-10-21T18:48:56.232Z,11.50
2018-10-21T18:51:24.402Z,6.83
2018-10-21T18:53:52.557Z,7.30
2018-10-21T18:56:20.729Z,7.03
2018-10-21T18:58:48.970Z,9.53
2018-10-21T19:01:17.121Z,10.83
2018-10-21T19:03:45.195Z,9.23
2018-10-21T19:06:13.487Z,9.43
2018-10-21T19:08:41.707Z,5.73
2018-10-21T19:11:10.016Z,8.07
2018-10-21T19:13:38.211Z,9.10
2018-10-21T19:16:06.529Z,12.90
2018-10-21T19:18:34.647Z,5.90
2018-10-21T19:21:02.798Z,9.73
2018-10-21T19:23:31.014Z,6.90
2018-10-21T19:25:59.191Z,9.63
2018-10-21T19:28:27.504Z,9.27
2018-10-21T19:30:55.917Z,9.83
2018-10-21T19:33:24.133Z,9.40
2018-10-21T19:35:52.329Z,10.47
2018-10-21T19:38:20.470Z,9.13
2018-10-21T19:40:48.701Z,10.23
2018-10-21T19:43:19.068Z,7.80
2018-10-21T19:45:47.065Z,7.33
2018-10-21T19:48:15.273Z,6.83
2018-10-21T19:50:43.441Z,5.80
2018-10-21T19:53:11.609Z,9.17
2018-10-21T19:55:39.754Z,8.17
2018-10-21T19:58:08.065Z,7.97
2018-10-21T20:00:36.231Z,7.30
2018-10-21T20:03:04.391Z,5.93
2018-10-21T20:05:32.561Z,8.37
2018-10-21T20:08:00.876Z,8.80
2018-10-21T20:10:29.520Z,7.63
2018-10-21T20:12:57.798Z,7.90
2018-10-21T20:15:26.097Z,7.60
2018-10-21T20:17:54.411Z,9.30
2018-10-21T20:20:22.558Z,8.30
2018-10-21T20:22:50.716Z,7.00
2018-10-21T20:25:18.912Z,6.93
2018-10-21T20:27:47.412Z,10.73
2018-10-21T20:30:15.620Z,8.27
2018-10-21T20:32:44.001Z,9.57
2018-10-21T20:35:12.558Z,7.10
2018-10-21T20:37:40.770Z,7.77
2018-10-21T20:40:09.762Z,7.83
2018-10-21T20:42:38.035Z,11.30
2018-10-21T20:45:07.549Z,9.63
2018-10-21T20:47:35.856Z,18.07
2018-10-21T20:50:04.537Z,5.77
2018-10-21T20:52:32.697Z,7.03
2018-10-21T20:55:00.868Z,6.80
2018-10-21T20:57:29.046Z,6.57
2018-10-21T20:59:57.257Z,6.07
2018-10-21T21:02:25.396Z,6.23
2018-10-21T21:04:53.585Z,6.07
2018-10-21T21:07:21.764Z,10.17
2018-10-21T21:09:49.916Z,6.63
2018-10-21T21:12:18.165Z,5.57
2018-10-21T21:14:46.509Z,6.13
2018-10-21T21:17:14.678Z,6.40
2018-10-21T21:19:42.873Z,6.87
2018-10-21T21:22:11.069Z,5.70
2018-10-21T21:24:39.201Z,6.03
2018-10-21T21:27:07.367Z,5.80
2018-10-21T21:29:35.534Z,6.17
2018-10-21T21:32:03.805Z,7.90
2018-10-21T21:34:32.034Z,7.83
2018-10-21T21:37:00.198Z,5.13
2018-10-21T21:39:28.355Z,5.70
2018-10-21T21:41:56.533Z,5.60
2018-10-21T21:44:24.725Z,6.70
2018-10-21T21:46:52.902Z,6.50
2018-10-21T21:49:21.041Z,10.53
2018-10-21T21:51:49.225Z,7.00
2018-10-21T21:54:17.523Z,7.93
2018-10-21T21:56:46.577Z,7.83
2018-10-21T21:59:14.790Z,9.80
2018-10-21T22:01:42.943Z,9.03
2018-10-21T22:04:11.239Z,10.03
2018-10-21T22:06:39.355Z,8.77
2018-10-21T22:09:09.261Z,9.80
2018-10-21T22:11:37.525Z,6.20
2018-10-21T22:14:05.942Z,10.37
2018-10-21T22:16:34.702Z,8.97
2018-10-21T22:19:02.871Z,7.27
2018-10-21T22:21:31.072Z,6.33
2018-10-21T22:23:59.253Z,6.30
2018-10-21T22:26:27.390Z,5.83
2018-10-21T22:28:55.565Z,7.50
2018-10-21T22:31:23.718Z,5.77
2018-10-21T22:33:51.913Z,6.87
2018-10-21T22:36:20.086Z,7.20
2018-10-21T22:38:48.325Z,6.50
2018-10-21T22:41:16.513Z,6.60
2018-10-21T22:43:44.773Z,6.83
2018-10-21T22:46:12.940Z,11.03
2018-10-21T22:48:41.097Z,10.50
2018-10-21T22:51:09.507Z,5.93
2018-10-21T22:53:37.665Z,6.23
2018-10-21T22:56:05.909Z,14.57
2018-10-21T22:58:34.192Z,10.77
2018-10-21T23:01:02.365Z,8.13
2018-10-21T23:03:30.549Z,11.20
2018-10-21T23:05:58.748Z,10.30
2018-10-21T23:08:26.874Z,10.37
2018-10-21T23:10:55.026Z,6.07
2018-10-21T23:13:23.209Z,5.27
2018-10-21T23:15:51.379Z,8.83
2018-10-21T23:18:19.706Z,8.77
2018-10-21T23:20:47.814Z,7.00
2018-10-21T23:23:15.993Z,7.60
2018-10-21T23:25:44.182Z,5.20
2018-10-21T23:28:12.512Z,4.70
2018-10-21T23:30:40.649Z,5.80
2018-10-21T23:33:09.057Z,11.20
2018-10-21T23:35:37.237Z,5.83
2018-10-21T23:38:05.569Z,8.67
2018-10-21T23:40:33.750Z,6.33
2018-10-21T23:43:01.986Z,5.40
2018-10-21T23:45:30.175Z,6.70
2018-10-21T23:47:58.383Z,6.43
2018-10-21T23:50:26.511Z,6.50
2018-10-21T23:52:54.684Z,7.30
2018-10-21T23:55:22.849Z,8.23
2018-10-21T23:57:51.032Z,7.93
